createdAt,value
2018-02-05T00:00:59.590Z,-0.16
2018-02-05T00:02:02.084Z,-0.11
2018-02-05T00:03:04.551Z,-0.10
2018-02-05T00:04:07.053Z,-0.09
2018-02-05T00:05:09.545Z,-0.11
2018-02-05T00:06:12.073Z,0.07
2018-02-05T00:07:14.514Z,0.10
2018-02-05T00:08:16.992Z,-0.01
2018-02-05T00:09:19.472Z,0.10
2018-02-05T00:10:21.961Z,0.08
2018-02-05T00:11:24.449Z,0.11
2018-02-05T00:12:26.973Z,0.06
2018-02-05T00:13:29.434Z,0.04
2018-02-05T00:14:31.895Z,0.03
2018-02-05T00:15:34.385Z,-0.01
2018-02-05T00:16:36.851Z,-0.11
2018-02-05T00:17:39.330Z,-0.05
2018-02-05T00:18:41.803Z,-0.08
2018-02-05T00:19:44.290Z,-0.11
2018-02-05T00:20:46.763Z,-0.14
2018-02-05T00:21:49.253Z,-0.19
2018-02-05T00:22:51.734Z,-0.19
2018-02-05T00:23:54.203Z,-0.17
2018-02-05T00:24:56.681Z,-0.18
2018-02-05T00:25:59.292Z,-0.13
2018-02-05T00:27:01.778Z,-0.08
2018-02-05T00:28:04.262Z,0.05
2018-02-05T00:29:06.732Z,0.02
2018-02-05T00:30:09.218Z,-0.07
2018-02-05T00:31:11.704Z,-0.16
2018-02-05T00:32:14.180Z,-0.15
2018-02-05T00:33:16.717Z,-0.30
2018-02-05T00:34:19.199Z,-0.38
2018-02-05T00:35:21.689Z,-0.31
2018-02-05T00:36:24.322Z,-0.29
2018-02-05T00:37:26.803Z,-0.35
2018-02-05T00:38:29.288Z,-0.12
2018-02-05T00:39:31.764Z,0.04
2018-02-05T00:40:34.231Z,0.03
2018-02-05T00:41:36.696Z,-0.10
2018-02-05T00:42:39.182Z,0.05
2018-02-05T00:43:41.658Z,-0.08
2018-02-05T00:44:44.138Z,-0.24
2018-02-05T00:45:46.637Z,-0.16
2018-02-05T00:46:49.119Z,-0.13
2018-02-05T00:47:51.596Z,-0.03
2018-02-05T00:48:54.101Z,-0.06
2018-02-05T00:49:56.568Z,-0.05
2018-02-05T00:50:59.044Z,-0.01
2018-02-05T00:52:01.525Z,0.06
2018-02-05T00:53:03.994Z,-0.07
2018-02-05T00:54:06.489Z,-0.06
2018-02-05T00:55:08.984Z,-0.23
2018-02-05T00:56:11.478Z,-0.43
2018-02-05T00:57:13.950Z,-0.42
2018-02-05T00:58:16.437Z,-0.56
2018-02-05T00:59:18.937Z,-0.69
2018-02-05T01:00:21.467Z,-0.44
2018-02-05T01:01:23.962Z,-0.57
2018-02-05T01:02:26.449Z,-0.57
2018-02-05T01:03:28.923Z,-0.30
2018-02-05T01:04:31.395Z,-0.30
2018-02-05T01:05:33.872Z,-0.29
2018-02-05T01:06:36.338Z,-0.22
2018-02-05T01:07:38.814Z,-0.12
2018-02-05T01:08:41.287Z,-0.27
2018-02-05T01:09:43.754Z,-0.37
2018-02-05T01:10:46.244Z,-0.59
2018-02-05T01:11:48.720Z,-0.45
2018-02-05T01:12:51.221Z,-0.37
2018-02-05T01:13:53.690Z,-0.45
2018-02-05T01:14:56.174Z,-0.55
2018-02-05T01:15:58.643Z,-0.76
2018-02-05T01:17:01.115Z,-0.81
2018-02-05T01:18:03.602Z,-0.59
2018-02-05T01:19:06.067Z,-0.35
2018-02-05T01:20:08.566Z,-0.57
2018-02-05T01:21:11.045Z,-0.54
2018-02-05T01:22:13.539Z,-0.43
2018-02-05T01:23:16.029Z,-0.41
2018-02-05T01:24:18.530Z,-0.65
2018-02-05T01:25:21.017Z,-0.75
2018-02-05T01:26:23.495Z,-0.88
2018-02-05T01:27:25.991Z,-0.70
2018-02-05T01:28:28.481Z,-0.90
2018-02-05T01:29:30.968Z,-0.88
2018-02-05T01:30:33.456Z,-1.17
2018-02-05T01:31:35.937Z,-1.09
2018-02-05T01:32:38.430Z,-1.22
2018-02-05T01:33:40.920Z,-1.00
2018-02-05T01:34:43.441Z,-0.98
2018-02-05T01:35:46.127Z,-0.79
2018-02-05T01:36:48.611Z,-0.82
2018-02-05T01:37:51.098Z,-0.75
2018-02-05T01:38:53.593Z,-0.74
2018-02-05T01:39:56.076Z,-0.91
2018-02-05T01:40:58.556Z,-0.91
2018-02-05T01:42:01.036Z,-0.97
2018-02-05T01:43:03.508Z,-0.81
2018-02-05T01:44:05.984Z,-0.94
2018-02-05T01:45:08.466Z,-0.90
2018-02-05T01:46:10.948Z,-0.89
2018-02-05T01:47:13.449Z,-1.10
2018-02-05T01:48:15.914Z,-1.25
2018-02-05T01:49:18.397Z,-1.42
2018-02-05T01:50:20.871Z,-1.53
2018-02-05T01:51:23.356Z,-1.24
2018-02-05T01:52:25.836Z,-1.33
2018-02-05T01:53:28.308Z,-1.29
2018-02-05T01:54:30.774Z,-1.29
2018-02-05T01:55:33.248Z,-1.31
2018-02-05T01:56:35.714Z,-1.21
2018-02-05T01:57:38.186Z,-1.43
2018-02-05T01:58:40.682Z,-1.28
2018-02-05T01:59:43.209Z,-1.09
2018-02-05T02:00:45.744Z,-1.00
2018-02-05T02:01:48.186Z,-1.03
2018-02-05T02:02:50.667Z,-1.20
2018-02-05T02:03:53.159Z,-1.42
2018-02-05T02:04:55.640Z,-1.46
2018-02-05T02:05:58.141Z,-1.42
2018-02-05T02:07:00.624Z,-1.19
2018-02-05T02:08:03.109Z,-1.35
2018-02-05T02:09:05.579Z,-1.38
2018-02-05T02:10:08.075Z,-1.47
2018-02-05T02:11:10.563Z,-1.33
2018-02-05T02:12:13.046Z,-1.15
2018-02-05T02:13:15.542Z,-1.42
2018-02-05T02:14:18.041Z,-1.47
2018-02-05T02:15:20.526Z,-1.40
2018-02-05T02:16:22.991Z,-1.31
2018-02-05T02:17:25.485Z,-1.34
2018-02-05T02:18:27.946Z,-1.13
2018-02-05T02:19:30.424Z,-1.11
2018-02-05T02:20:32.899Z,-1.08
2018-02-05T02:21:35.376Z,-1.34
2018-02-05T02:22:37.873Z,-1.19
2018-02-05T02:23:40.348Z,-1.20
2018-02-05T02:24:42.841Z,-1.18
2018-02-05T02:25:45.330Z,-1.20
2018-02-05T02:26:47.826Z,-1.28
2018-02-05T02:27:50.316Z,-1.26
2018-02-05T02:28:52.809Z,-1.33
2018-02-05T02:29:55.292Z,-1.17
2018-02-05T02:30:57.797Z,-1.26
2018-02-05T02:32:00.286Z,-1.40
2018-02-05T02:33:02.773Z,-1.61
2018-02-05T02:34:05.244Z,-1.54
2018-02-05T02:35:07.712Z,-1.48
2018-02-05T02:36:10.222Z,-1.51
2018-02-05T02:37:12.709Z,-1.59
2018-02-05T02:38:15.217Z,-1.71
2018-02-05T02:39:17.713Z,-1.75
2018-02-05T02:40:20.205Z,-1.82
2018-02-05T02:41:22.684Z,-1.83
2018-02-05T02:42:25.174Z,-1.64
2018-02-05T02:43:27.651Z,-1.70
2018-02-05T02:44:30.137Z,-1.50
2018-02-05T02:45:32.622Z,-1.77
2018-02-05T02:46:35.188Z,-1.91
2018-02-05T02:47:37.688Z,-1.91
2018-02-05T02:48:40.181Z,-2.04
2018-02-05T02:49:42.654Z,-2.11
2018-02-05T02:50:45.127Z,-2.21
2018-02-05T02:51:47.598Z,-2.17
2018-02-05T02:52:50.081Z,-2.28
2018-02-05T02:53:52.585Z,-2.05
2018-02-05T02:54:55.157Z,-1.75
2018-02-05T02:55:57.653Z,-1.68
2018-02-05T02:57:00.146Z,-1.65
2018-02-05T02:58:02.624Z,-1.76
2018-02-05T02:59:05.109Z,-1.67
2018-02-05T03:00:07.609Z,-1.90
2018-02-05T03:01:10.111Z,-1.69
2018-02-05T03:02:12.601Z,-1.76
2018-02-05T03:03:15.097Z,-1.54
2018-02-05T03:04:17.581Z,-1.65
2018-02-05T03:05:20.069Z,-1.64
2018-02-05T03:06:22.543Z,-1.61
2018-02-05T03:07:25.010Z,-1.57
2018-02-05T03:08:27.496Z,-1.58
2018-02-05T03:09:29.966Z,-1.77
2018-02-05T03:10:32.453Z,-2.02
2018-02-05T03:11:34.933Z,-2.25
2018-02-05T03:12:37.421Z,-2.45
2018-02-05T03:13:39.924Z,-2.49
2018-02-05T03:14:42.415Z,-2.24
2018-02-05T03:15:44.892Z,-2.25
2018-02-05T03:16:47.381Z,-2.13
2018-02-05T03:17:49.865Z,-2.26
2018-02-05T03:18:52.335Z,-2.27
2018-02-05T03:19:54.821Z,-2.42
2018-02-05T03:20:57.287Z,-2.59
2018-02-05T03:21:59.877Z,-2.62
2018-02-05T03:23:02.436Z,-2.69
2018-02-05T03:25:06.688Z,-2.82
2018-02-05T03:26:09.154Z,-2.71
2018-02-05T03:27:11.637Z,-2.50
2018-02-05T03:28:14.103Z,-2.22
2018-02-05T03:29:16.596Z,-2.24
2018-02-05T03:30:19.075Z,-2.25
2018-02-05T03:31:21.556Z,-2.34
2018-02-05T03:32:24.053Z,-2.44
2018-02-05T03:33:26.529Z,-2.29
2018-02-05T03:34:29.003Z,-2.17
2018-02-05T03:35:31.482Z,-2.28
2018-02-05T03:36:33.972Z,-2.06
2018-02-05T03:37:36.632Z,-1.95
2018-02-05T03:38:39.120Z,-1.88
2018-02-05T03:39:41.621Z,-1.76
2018-02-05T03:40:44.086Z,-1.79
2018-02-05T03:41:46.584Z,-1.68
2018-02-05T03:42:49.055Z,-1.64
2018-02-05T03:43:51.540Z,-1.77
2018-02-05T03:44:54.007Z,-1.74
2018-02-05T03:45:56.493Z,-1.67
2018-02-05T03:46:58.963Z,-1.64
2018-02-05T03:48:01.431Z,-1.72
2018-02-05T03:49:04.033Z,-1.87
2018-02-05T03:50:06.527Z,-1.98
2018-02-05T03:51:09.009Z,-1.91
2018-02-05T03:52:11.501Z,-1.94
2018-02-05T03:53:14.014Z,-2.09
2018-02-05T03:54:16.493Z,-2.07
2018-02-05T03:55:18.975Z,-2.16
2018-02-05T03:56:21.465Z,-2.37
2018-02-05T03:57:23.949Z,-2.28
2018-02-05T03:58:26.438Z,-2.38
2018-02-05T03:59:28.921Z,-2.49
2018-02-05T04:00:31.430Z,-2.44
2018-02-05T04:01:33.901Z,-2.58
2018-02-05T04:02:36.431Z,-2.66
2018-02-05T04:03:38.917Z,-2.63
2018-02-05T04:04:41.383Z,-2.20
2018-02-05T04:05:43.851Z,-1.82
2018-02-05T08:40:58.866Z,11.01
2018-02-05T08:42:01.341Z,11.63
2018-02-05T08:43:03.873Z,12.25
2018-02-05T08:44:06.348Z,11.78
2018-02-05T08:45:08.811Z,10.23
2018-02-05T08:46:11.277Z,10.85
2018-02-05T08:47:13.743Z,11.52
2018-02-05T08:48:16.213Z,9.98
2018-02-05T08:49:18.672Z,9.22
2018-02-05T08:50:21.137Z,9.29
2018-02-05T08:51:24.446Z,11.20
2018-02-05T08:52:27.042Z,11.57
2018-02-05T08:53:30.045Z,11.66
2018-02-05T08:54:32.556Z,11.94
2018-02-05T08:55:35.023Z,11.78
2018-02-05T08:56:37.483Z,11.60
2018-02-05T08:57:39.968Z,12.61
2018-02-05T08:58:42.507Z,13.20
2018-02-05T08:59:45.036Z,13.03
2018-02-05T09:00:47.518Z,13.77
2018-02-05T09:01:50.021Z,11.52
2018-02-05T09:02:52.486Z,11.34
2018-02-05T09:03:54.943Z,9.24
2018-02-05T09:04:57.435Z,9.89
2018-02-05T09:05:59.905Z,11.99
2018-02-05T09:07:02.371Z,13.05
2018-02-05T09:08:04.865Z,13.61
2018-02-05T09:09:07.334Z,13.56
2018-02-05T09:10:09.813Z,12.33
2018-02-05T09:11:12.329Z,12.39
2018-02-05T09:12:14.778Z,12.04
2018-02-05T09:13:17.277Z,13.05
2018-02-05T09:14:19.766Z,12.53
2018-02-05T09:15:22.265Z,13.39
2018-02-05T09:16:24.727Z,13.96
2018-02-05T09:17:27.225Z,14.06
2018-02-05T09:18:29.703Z,14.06
2018-02-05T09:19:32.231Z,14.91
2018-02-05T09:20:34.698Z,13.39
2018-02-05T09:21:37.211Z,11.43
2018-02-05T09:22:39.745Z,12.30
2018-02-05T09:23:42.221Z,11.06
2018-02-05T09:24:44.678Z,11.57
2018-02-05T09:25:47.224Z,12.59
2018-02-05T09:26:49.698Z,11.13
2018-02-05T09:27:52.177Z,10.61
2018-02-05T09:28:54.652Z,10.08
2018-02-05T09:29:57.135Z,11.01
2018-02-05T09:30:59.614Z,11.43
2018-02-05T09:32:02.116Z,11.43
2018-02-05T09:33:04.570Z,11.20
2018-02-05T09:34:07.062Z,11.43
2018-02-05T09:35:09.538Z,12.12
2018-02-05T09:36:11.995Z,13.00
2018-02-05T09:37:14.455Z,12.32
2018-02-05T09:38:16.936Z,11.81
2018-02-05T09:39:19.434Z,11.37
2018-02-05T09:40:21.909Z,11.28
2018-02-05T09:41:24.392Z,12.41
2018-02-05T09:42:26.871Z,12.51
2018-02-05T09:43:29.384Z,12.42
2018-02-05T09:44:31.858Z,12.90
2018-02-05T09:45:34.342Z,12.63
2018-02-05T09:46:36.821Z,12.17
2018-02-05T09:47:39.819Z,11.17
2018-02-05T09:48:42.296Z,12.38
2018-02-05T09:49:44.777Z,12.55
2018-02-05T09:50:47.266Z,13.07
2018-02-05T09:51:49.800Z,12.29
2018-02-05T09:52:52.326Z,12.17
2018-02-05T09:53:54.759Z,12.11
2018-02-05T09:54:57.248Z,12.29
2018-02-05T09:55:59.729Z,12.10
2018-02-05T09:57:02.195Z,11.85
2018-02-05T09:58:04.675Z,12.25
2018-02-05T09:59:07.153Z,11.68
2018-02-05T10:00:09.664Z,12.04
2018-02-05T10:01:12.127Z,12.47
2018-02-05T10:02:14.590Z,12.14
2018-02-05T10:03:17.051Z,11.92
2018-02-05T10:04:19.552Z,13.46
2018-02-05T10:05:22.032Z,12.48
2018-02-05T10:06:24.616Z,13.23
2018-02-05T10:07:27.090Z,13.09
2018-02-05T10:08:29.580Z,12.71
2018-02-05T10:09:32.038Z,12.08
2018-02-05T10:10:34.513Z,13.07
2018-02-05T10:11:37.019Z,12.50
2018-02-05T10:12:39.505Z,13.19
2018-02-05T10:13:41.978Z,12.92
2018-02-05T10:14:44.455Z,13.07
2018-02-05T10:15:46.932Z,12.18
2018-02-05T10:16:49.418Z,13.09
2018-02-05T10:17:51.883Z,12.10
2018-02-05T10:18:54.357Z,12.15
2018-02-05T10:19:56.837Z,11.77
2018-02-05T10:20:59.323Z,11.32
2018-02-05T10:22:01.846Z,11.43
2018-02-05T10:23:04.353Z,10.85
2018-02-05T10:24:06.844Z,10.36
2018-02-05T10:25:09.314Z,11.95
2018-02-05T10:26:11.788Z,12.39
2018-02-05T10:27:14.258Z,12.44
2018-02-05T10:28:16.727Z,11.44
2018-02-05T10:29:19.243Z,12.08
2018-02-05T10:30:21.729Z,12.51
2018-02-05T10:31:24.213Z,13.23
2018-02-05T10:32:26.689Z,13.38
2018-02-05T10:33:29.192Z,13.30
2018-02-05T10:34:31.651Z,13.64
2018-02-05T10:35:34.110Z,13.74
2018-02-05T10:36:36.730Z,13.09
2018-02-05T10:37:39.198Z,13.32
2018-02-05T10:38:41.708Z,13.22
2018-02-05T10:39:44.142Z,14.06
2018-02-05T10:40:46.618Z,14.34
2018-02-05T10:41:49.106Z,14.24
2018-02-05T10:42:51.566Z,14.24
2018-02-05T10:43:54.084Z,14.17
2018-02-05T10:44:56.562Z,13.41
2018-02-05T10:45:59.073Z,12.86
2018-02-05T10:47:01.540Z,12.77
2018-02-05T10:48:03.999Z,12.18
2018-02-05T10:49:06.459Z,12.42
2018-02-05T10:50:08.944Z,12.26
2018-02-05T10:51:11.420Z,12.27
2018-02-05T10:52:13.890Z,12.30
2018-02-05T10:53:16.356Z,13.05
2018-02-05T10:54:18.819Z,13.28
2018-02-05T10:55:21.285Z,14.17
2018-02-05T10:56:23.765Z,15.52
2018-02-05T10:57:26.241Z,14.62
2018-02-05T10:58:28.703Z,14.77
2018-02-05T10:59:31.182Z,14.07
2018-02-05T11:00:33.661Z,15.45
2018-02-05T11:01:36.149Z,13.19
2018-02-05T11:02:38.632Z,12.39
2018-02-05T11:03:41.118Z,12.71
2018-02-05T11:04:43.600Z,12.73
2018-02-05T11:05:46.081Z,13.55
2018-02-05T11:06:48.579Z,11.86
2018-02-05T11:07:51.061Z,12.05
2018-02-05T11:08:53.541Z,12.08
2018-02-05T11:09:56.252Z,11.73
2018-02-05T11:10:58.714Z,11.43
2018-02-05T11:12:01.178Z,12.39
2018-02-05T11:13:03.649Z,12.35
2018-02-05T11:14:06.129Z,12.38
2018-02-05T11:15:08.599Z,11.87
2018-02-05T11:16:11.062Z,11.71
2018-02-05T11:17:13.535Z,11.91
2018-02-05T11:18:16.012Z,12.09
2018-02-05T11:19:18.489Z,11.92
2018-02-05T11:20:20.979Z,11.76
2018-02-05T11:21:23.455Z,12.42
2018-02-05T11:22:25.933Z,13.11
2018-02-05T11:23:28.418Z,12.41
2018-02-05T11:24:30.921Z,13.21
2018-02-05T11:25:33.410Z,12.26
2018-02-05T11:26:36.041Z,12.40
2018-02-05T11:27:45.279Z,12.68
2018-02-05T11:28:47.966Z,14.19
2018-02-05T11:29:50.497Z,13.19
2018-02-05T11:30:53.006Z,13.90
2018-02-05T11:31:55.484Z,14.39
2018-02-05T11:32:58.018Z,14.34
2018-02-05T11:34:00.498Z,14.81
2018-02-05T11:35:02.985Z,13.84
2018-02-05T11:36:05.472Z,13.62
2018-02-05T11:37:07.930Z,14.45
2018-02-05T11:38:10.404Z,14.19
2018-02-05T11:39:12.878Z,15.58
2018-02-05T11:40:15.357Z,16.15
2018-02-05T11:41:17.823Z,16.64
2018-02-05T11:42:20.297Z,17.51
2018-02-05T11:43:22.754Z,17.43
2018-02-05T11:44:25.739Z,16.83
2018-02-05T11:45:28.213Z,15.87
2018-02-05T11:46:30.686Z,16.24
2018-02-05T11:47:33.198Z,14.87
2018-02-05T11:48:35.662Z,16.07
2018-02-05T11:49:38.146Z,15.17
2018-02-05T11:50:40.607Z,15.90
2018-02-05T11:51:43.103Z,17.02
2018-02-05T11:52:45.557Z,15.97
2018-02-05T11:53:48.035Z,17.04
2018-02-05T11:54:50.517Z,17.74
2018-02-05T11:55:53.065Z,17.46
2018-02-05T11:56:55.533Z,16.68
2018-02-05T11:57:58.020Z,16.73
2018-02-05T11:59:00.828Z,15.89
2018-02-05T12:00:03.291Z,15.03
2018-02-05T12:01:05.783Z,15.06
2018-02-05T12:02:08.261Z,15.79
2018-02-05T12:03:10.735Z,16.16
2018-02-05T12:04:13.223Z,16.71
2018-02-05T12:05:15.755Z,17.95
2018-02-05T12:06:18.233Z,18.04
2018-02-05T12:07:20.709Z,17.71
2018-02-05T12:08:23.173Z,18.40
2018-02-05T12:09:25.642Z,17.22
2018-02-05T12:10:28.106Z,16.36
2018-02-05T12:11:30.583Z,16.18
2018-02-05T12:12:33.060Z,16.50
2018-02-05T12:13:35.573Z,16.44
2018-02-05T12:14:38.053Z,17.13
2018-02-05T12:15:40.534Z,18.65
2018-02-05T12:16:42.995Z,18.81
2018-02-05T12:17:45.459Z,18.86
2018-02-05T12:18:47.954Z,19.91
2018-02-05T12:19:50.429Z,21.12
2018-02-05T12:20:52.886Z,21.53
2018-02-05T12:21:55.350Z,19.98
2018-02-05T12:22:57.814Z,19.49
2018-02-05T12:24:00.307Z,19.37
2018-02-05T12:25:02.771Z,17.34
2018-02-05T12:26:05.235Z,17.16
2018-02-05T12:27:07.715Z,16.78
2018-02-05T12:28:10.191Z,16.52
2018-02-05T12:29:12.677Z,18.07
2018-02-05T12:30:15.158Z,18.69
2018-02-05T12:31:17.615Z,18.70
2018-02-05T12:32:20.074Z,17.74
2018-02-05T12:33:22.545Z,19.13
2018-02-05T12:34:25.027Z,19.78
2018-02-05T12:35:27.491Z,20.37
2018-02-05T12:36:29.959Z,17.78
2018-02-05T12:37:32.438Z,17.85
2018-02-05T12:38:34.917Z,17.01
2018-02-05T12:39:37.466Z,18.02
2018-02-05T12:40:39.946Z,18.26
2018-02-05T12:41:42.411Z,17.47
2018-02-05T12:42:44.893Z,16.97
2018-02-05T12:43:47.381Z,17.30
2018-02-05T12:44:49.864Z,17.39
2018-02-05T12:45:52.334Z,17.57
2018-02-05T12:46:54.812Z,17.05
2018-02-05T12:47:57.279Z,18.28
2018-02-05T12:48:59.744Z,18.87
2018-02-05T12:50:02.228Z,18.23
2018-02-05T12:51:04.695Z,17.38
2018-02-05T12:52:07.443Z,17.50
2018-02-05T12:53:09.927Z,18.22
2018-02-05T12:54:12.405Z,19.24
2018-02-05T12:55:14.910Z,19.81
2018-02-05T12:56:17.482Z,19.65
2018-02-05T12:57:19.966Z,19.98
2018-02-05T12:58:22.435Z,20.48
2018-02-05T12:59:24.921Z,20.32
2018-02-05T13:00:31.111Z,18.79
2018-02-05T13:01:52.271Z,17.47
2018-02-05T13:03:09.628Z,20.11
2018-02-05T13:04:16.518Z,21.42
2018-02-05T13:05:24.462Z,23.15
2018-02-05T13:06:43.651Z,20.92
2018-02-05T13:07:46.106Z,22.65
2018-02-05T13:08:48.634Z,23.07
2018-02-05T13:09:51.091Z,22.21
2018-02-05T13:10:53.570Z,22.34
2018-02-05T13:11:56.031Z,21.65
2018-02-05T13:12:58.511Z,21.70
2018-02-05T13:14:01.089Z,22.63
2018-02-05T13:15:03.550Z,22.17
2018-02-05T13:16:06.039Z,22.90
2018-02-05T13:17:08.522Z,20.77
2018-02-05T13:18:11.008Z,20.05
2018-02-05T13:19:13.489Z,19.14
2018-02-05T13:20:15.973Z,18.38
2018-02-05T13:21:18.534Z,19.02
2018-02-05T13:22:21.034Z,19.70
2018-02-05T13:23:23.495Z,20.45
2018-02-05T13:24:25.985Z,19.03
2018-02-05T13:25:28.470Z,18.86
2018-02-05T13:26:30.958Z,19.08
2018-02-05T13:27:33.452Z,20.63
2018-02-05T13:28:35.922Z,20.10
2018-02-05T13:29:38.422Z,20.60
2018-02-05T13:30:41.921Z,21.35
2018-02-05T13:31:44.747Z,20.52
2018-02-05T13:32:47.210Z,21.58
2018-02-05T13:33:49.733Z,20.35
2018-02-05T13:34:52.230Z,20.80
2018-02-05T13:35:54.709Z,19.51
2018-02-05T13:36:57.190Z,18.76
2018-02-05T13:37:59.681Z,18.58
2018-02-05T13:39:02.209Z,18.51
2018-02-05T13:40:04.671Z,20.31
2018-02-05T13:41:07.135Z,21.23
2018-02-05T13:42:09.601Z,21.54
2018-02-05T13:43:12.085Z,21.84
2018-02-05T13:44:14.555Z,22.31
2018-02-05T13:45:17.708Z,22.67
2018-02-05T13:46:20.327Z,22.69
2018-02-05T13:47:22.817Z,21.56
2018-02-05T13:48:25.292Z,21.40
2018-02-05T13:49:27.789Z,20.74
2018-02-05T13:50:30.276Z,22.22
2018-02-05T13:51:32.756Z,21.99
2018-02-05T13:52:35.237Z,22.82
2018-02-05T13:53:37.723Z,20.73
2018-02-05T13:54:40.279Z,19.97
2018-02-05T13:55:42.825Z,19.65
2018-02-05T13:56:45.470Z,19.38
2018-02-05T13:57:48.030Z,19.71
2018-02-05T13:58:50.627Z,19.55
2018-02-05T13:59:53.219Z,20.44
2018-02-05T14:00:55.725Z,18.63
2018-02-05T14:01:58.320Z,20.94
2018-02-05T14:03:00.834Z,19.36
2018-02-05T14:04:03.307Z,19.28
2018-02-05T14:05:05.790Z,20.06
2018-02-05T14:06:08.264Z,18.40
2018-02-05T14:07:10.751Z,18.60
2018-02-05T14:08:13.233Z,17.94
2018-02-05T14:09:15.707Z,18.60
2018-02-05T14:10:18.180Z,17.45
2018-02-05T14:11:20.654Z,19.28
2018-02-05T14:12:23.146Z,20.24
2018-02-05T14:13:25.623Z,18.43
2018-02-05T14:14:28.099Z,18.02
2018-02-05T14:15:30.651Z,17.02
2018-02-05T14:16:33.123Z,17.88
2018-02-05T14:17:35.608Z,18.39
2018-02-05T14:18:38.083Z,17.05
2018-02-05T14:19:40.547Z,17.07
2018-02-05T14:20:43.011Z,17.63
2018-02-05T14:21:45.564Z,17.35
2018-02-05T14:22:48.054Z,17.51
2018-02-05T14:23:50.680Z,17.53
2018-02-05T14:24:53.165Z,17.62
2018-02-05T14:25:55.659Z,18.30
2018-02-05T14:26:58.119Z,19.64
2018-02-05T14:28:00.592Z,19.49
2018-02-05T14:29:03.093Z,18.96
2018-02-05T14:30:05.574Z,19.28
2018-02-05T14:31:08.041Z,19.36
2018-02-05T14:32:10.516Z,18.98
2018-02-05T14:33:12.978Z,18.67
2018-02-05T14:34:15.465Z,17.32
2018-02-05T14:35:17.973Z,17.88
2018-02-05T14:36:20.462Z,17.54
2018-02-05T14:37:22.965Z,17.09
2018-02-05T14:38:25.440Z,16.93
2018-02-05T14:39:27.929Z,17.14
2018-02-05T14:40:30.399Z,17.21
2018-02-05T14:41:32.874Z,16.62
2018-02-05T14:42:35.358Z,14.96
2018-02-05T14:43:37.868Z,15.97
2018-02-05T14:44:40.350Z,16.63
2018-02-05T14:45:42.853Z,16.48
2018-02-05T14:46:45.345Z,15.25
2018-02-05T14:47:47.887Z,14.09
2018-02-05T14:48:50.363Z,13.63
2018-02-05T14:49:52.844Z,14.01
2018-02-05T14:50:55.328Z,14.41
2018-02-05T14:51:57.881Z,14.46
2018-02-05T14:53:00.373Z,14.28
2018-02-05T14:54:03.022Z,15.17
2018-02-05T14:55:05.505Z,14.93
2018-02-05T14:56:07.975Z,14.16
2018-02-05T14:57:10.457Z,16.46
2018-02-05T14:58:12.938Z,16.61
2018-02-05T14:59:15.418Z,17.91
2018-02-05T15:00:17.950Z,18.54
2018-02-05T15:01:20.450Z,18.09
2018-02-05T15:02:22.957Z,18.52
2018-02-05T15:03:25.478Z,17.55
2018-02-05T15:04:27.951Z,17.49
2018-02-05T15:05:30.451Z,17.41
2018-02-05T15:06:32.952Z,18.20
2018-02-05T15:07:35.465Z,18.83
2018-02-05T15:08:37.978Z,16.82
2018-02-05T15:09:40.438Z,15.99
2018-02-05T15:10:42.944Z,16.60
2018-02-05T15:11:45.444Z,17.48
2018-02-05T15:12:47.957Z,14.97
2018-02-05T15:13:50.433Z,15.24
2018-02-05T15:14:52.926Z,16.32
2018-02-05T15:15:55.400Z,17.45
2018-02-05T15:16:57.888Z,18.14
2018-02-05T15:18:00.376Z,17.81
2018-02-05T15:19:02.847Z,18.59
2018-02-05T15:20:05.307Z,17.75
2018-02-05T15:21:07.773Z,16.29
2018-02-05T15:22:10.235Z,15.32
2018-02-05T15:23:12.695Z,14.13
2018-02-05T15:24:15.180Z,14.44
2018-02-05T15:25:17.665Z,13.33
2018-02-05T15:26:20.136Z,13.60
2018-02-05T15:27:22.595Z,12.64
2018-02-05T15:28:25.081Z,12.62
2018-02-05T15:29:27.596Z,12.56
2018-02-05T15:30:30.070Z,11.53
2018-02-05T15:31:32.543Z,11.82
2018-02-05T15:32:35.025Z,10.99
2018-02-05T15:33:37.509Z,10.62
2018-02-05T15:34:40.014Z,10.60
2018-02-05T15:35:42.493Z,9.50
2018-02-05T15:36:44.973Z,9.41
2018-02-05T15:37:47.454Z,10.05
2018-02-05T15:38:49.923Z,10.23
2018-02-05T15:39:52.383Z,9.22
2018-02-05T15:40:54.861Z,9.27
2018-02-05T15:41:57.338Z,9.37
2018-02-05T15:42:59.795Z,9.01
2018-02-05T15:44:02.282Z,8.32
2018-02-05T15:45:04.743Z,9.08
2018-02-05T15:46:07.237Z,8.89
2018-02-05T15:47:09.710Z,8.50
2018-02-05T15:48:12.221Z,8.18
2018-02-05T15:49:14.763Z,8.54
2018-02-05T15:50:17.268Z,8.31
2018-02-05T15:51:19.741Z,8.31
2018-02-05T15:52:22.234Z,8.21
2018-02-05T15:53:24.718Z,8.50
2018-02-05T15:54:27.191Z,8.32
2018-02-05T15:55:29.695Z,8.89
2018-02-05T15:56:32.206Z,9.44
2018-02-05T15:57:34.672Z,8.55
2018-02-05T15:58:37.130Z,9.23
2018-02-05T15:59:39.590Z,9.35
2018-02-05T16:00:42.077Z,9.51
2018-02-05T16:01:45.069Z,9.14
2018-02-05T16:02:47.540Z,9.03
2018-02-05T16:03:50.018Z,9.40
2018-02-05T16:04:52.497Z,9.40
2018-02-05T16:05:54.958Z,9.15
2018-02-05T16:06:57.426Z,9.01
2018-02-05T16:07:59.887Z,8.57
2018-02-05T16:09:02.368Z,7.14
2018-02-05T16:10:04.841Z,6.77
2018-02-05T16:11:07.308Z,7.08
2018-02-05T16:12:09.825Z,7.09
2018-02-05T16:13:12.293Z,7.01
2018-02-05T16:14:14.803Z,7.01
2018-02-05T16:15:17.263Z,6.73
2018-02-05T16:16:19.744Z,7.01
2018-02-05T16:17:22.207Z,7.03
2018-02-05T16:18:24.681Z,7.23
2018-02-05T16:19:27.143Z,7.19
2018-02-05T16:20:29.627Z,6.99
2018-02-05T16:21:32.103Z,6.55
2018-02-05T16:22:34.594Z,5.90
2018-02-05T16:23:37.095Z,5.74
2018-02-05T16:24:39.559Z,5.39
2018-02-05T16:25:42.033Z,5.04
2018-02-05T16:26:44.521Z,4.85
2018-02-05T16:27:46.997Z,4.73
2018-02-05T16:28:49.455Z,4.45
2018-02-05T16:29:51.936Z,4.39
2018-02-05T16:30:54.404Z,3.91
2018-02-05T16:31:56.881Z,3.59
2018-02-05T16:32:59.350Z,3.43
2018-02-05T16:34:01.904Z,3.31
2018-02-05T16:35:04.381Z,3.10
2018-02-05T16:36:06.861Z,3.18
2018-02-05T16:37:09.387Z,3.10
2018-02-05T16:38:11.869Z,2.89
2018-02-05T16:39:14.352Z,2.95
2018-02-05T16:40:16.811Z,2.91
2018-02-05T16:41:19.284Z,2.43
2018-02-05T16:42:21.803Z,2.31
2018-02-05T16:43:24.274Z,2.36
2018-02-05T16:44:26.761Z,2.60
2018-02-05T16:45:29.245Z,2.70
2018-02-05T16:46:31.724Z,2.50
2018-02-05T16:47:34.201Z,2.56
2018-02-05T16:48:36.728Z,2.71
2018-02-05T16:49:39.186Z,2.47
2018-02-05T16:50:41.745Z,2.12
2018-02-05T16:51:44.210Z,2.08
2018-02-05T16:52:46.688Z,2.39
2018-02-05T16:53:49.151Z,2.42
2018-02-05T16:54:51.653Z,2.34
2018-02-05T16:55:54.130Z,2.08
2018-02-05T16:56:56.641Z,1.95
2018-02-05T16:57:59.143Z,1.77
2018-02-05T16:59:01.709Z,2.03
2018-02-05T17:00:04.241Z,1.81
2018-02-05T17:01:07.040Z,2.01
2018-02-05T17:02:09.536Z,1.85
2018-02-05T17:03:12.165Z,1.76
2018-02-05T17:04:14.643Z,1.47
2018-02-05T17:05:17.119Z,1.45
2018-02-05T17:06:19.592Z,1.40
2018-02-05T17:07:22.089Z,1.53
2018-02-05T17:08:24.731Z,1.38
2018-02-05T17:09:27.245Z,1.29
2018-02-05T17:10:29.722Z,1.70
2018-02-05T17:11:32.190Z,1.43
2018-02-05T17:12:34.664Z,1.47
2018-02-05T17:13:37.127Z,1.73
2018-02-05T17:14:39.591Z,1.38
2018-02-05T17:15:42.091Z,1.38
2018-02-05T17:16:44.621Z,1.22
2018-02-05T17:17:47.087Z,1.39
2018-02-05T17:18:49.609Z,1.32
2018-02-05T17:19:52.086Z,1.49
2018-02-05T17:20:54.557Z,1.32
2018-02-05T17:21:57.088Z,1.25
2018-02-05T17:22:59.642Z,1.31
2018-02-05T17:24:02.465Z,1.22
2018-02-05T17:25:05.153Z,1.13
2018-02-05T17:26:07.749Z,0.99
2018-02-05T17:27:10.261Z,0.90
2018-02-05T17:28:12.762Z,1.10
2018-02-05T17:29:16.709Z,1.07
2018-02-05T17:30:19.338Z,1.22
2018-02-05T17:31:21.953Z,1.00
2018-02-05T17:32:25.287Z,0.81
2018-02-05T17:33:31.030Z,0.95
2018-02-05T17:34:33.544Z,0.91
2018-02-05T17:35:36.095Z,0.62
2018-02-05T17:36:38.571Z,0.83
2018-02-05T17:37:41.064Z,1.04
2018-02-05T17:38:44.020Z,0.88
2018-02-05T17:39:47.071Z,0.90
2018-02-05T17:40:49.553Z,0.93
2018-02-05T17:41:52.056Z,0.68
2018-02-05T17:42:54.522Z,0.79
2018-02-05T17:43:57.067Z,0.83
2018-02-05T17:44:59.686Z,0.61
2018-02-05T17:46:02.569Z,0.52
2018-02-05T17:47:05.057Z,0.32
2018-02-05T17:48:08.005Z,0.45
2018-02-05T17:49:10.477Z,0.33
2018-02-05T17:50:12.961Z,0.38
2018-02-05T17:51:15.956Z,0.44
2018-02-05T17:52:18.830Z,0.36
2018-02-05T17:53:21.628Z,0.34
2018-02-05T17:54:24.305Z,0.48
2018-02-05T17:55:26.828Z,0.59
2018-02-05T17:56:29.321Z,0.54
2018-02-05T17:57:31.809Z,0.39
2018-02-05T17:58:34.792Z,0.49
2018-02-05T17:59:37.317Z,0.26
2018-02-05T18:00:39.961Z,0.54
2018-02-05T18:01:42.600Z,0.56
2018-02-05T18:02:45.250Z,0.50
2018-02-05T18:03:47.778Z,0.54
2018-02-05T18:04:50.562Z,0.41
2018-02-05T18:05:53.303Z,0.19
2018-02-05T18:06:55.786Z,0.31